createdAt,value
2022-10-20T00:04:37.930Z,100976.84
2022-10-20T00:09:41.234Z,100980.13
2022-10-20T00:14:43.945Z,100987.22
2022-10-20T00:19:50.209Z,100996.13
2022-10-20T00:24:53.044Z,101000.03
2022-10-20T00:29:55.903Z,100998.00
2022-10-20T00:34:58.712Z,101003.38
2022-10-20T00:40:01.621Z,101004.94
2022-10-20T00:45:12.647Z,100997.03
2022-10-20T00:50:21.841Z,100998.81
2022-10-20T00:55:32.514Z,101007.09
2022-10-20T01:00:37.446Z,101011.53
2022-10-20T01:05:40.139Z,101009.22
2022-10-20T01:11:25.941Z,101010.16
2022-10-20T01:16:47.245Z,101005.25
2022-10-20T01:21:58.951Z,101003.44
2022-10-20T01:27:26.607Z,101005.25
2022-10-20T01:32:38.947Z,101006.66
2022-10-20T01:37:57.032Z,101008.91
2022-10-20T01:43:03.964Z,101014.78
2022-10-20T01:48:07.992Z,101016.53
2022-10-20T01:53:10.922Z,101009.94
2022-10-20T01:58:39.892Z,101013.75
2022-10-20T02:03:54.865Z,101011.69
2022-10-20T02:09:04.607Z,101006.75
2022-10-20T02:14:10.212Z,101006.69
2022-10-20T02:19:14.084Z,101012.09
2022-10-20T02:24:17.670Z,101023.47
2022-10-20T02:29:25.284Z,101028.53
2022-10-20T02:34:28.179Z,101032.72
2022-10-20T02:39:30.989Z,101030.91
2022-10-20T02:44:33.916Z,101031.66
2022-10-20T02:49:36.657Z,101046.72
2022-10-20T02:54:40.230Z,101047.69
2022-10-20T02:59:43.142Z,101043.38
2022-10-20T03:04:45.929Z,101052.56
2022-10-20T03:09:49.029Z,101054.09
2022-10-20T03:14:51.790Z,101063.59
2022-10-20T03:19:54.556Z,101059.63
2022-10-20T03:24:57.275Z,101075.13
2022-10-20T03:30:00.000Z,101079.03
2022-10-20T03:35:02.553Z,101086.75
2022-10-20T03:40:05.821Z,101095.63
2022-10-20T03:45:09.219Z,101097.19
2022-10-20T03:50:12.051Z,101095.41
2022-10-20T03:55:16.316Z,101096.97
2022-10-20T04:00:19.155Z,101096.88
2022-10-20T04:05:22.097Z,101085.50
2022-10-20T04:10:25.010Z,101098.88
2022-10-20T04:15:29.891Z,101082.84
2022-10-20T04:20:32.610Z,101081.78
2022-10-20T04:25:35.429Z,101098.41
2022-10-20T04:30:42.225Z,101093.56
2022-10-20T04:35:45.081Z,101087.22
2022-10-20T04:40:54.876Z,101093.22
2022-10-20T04:46:05.473Z,101086.47
2022-10-20T04:51:14.604Z,101089.31
2022-10-20T04:56:20.258Z,101094.47
2022-10-20T05:01:25.558Z,101091.44
2022-10-20T05:06:31.075Z,101092.47
2022-10-20T05:11:36.850Z,101105.81
2022-10-20T05:16:39.680Z,101098.13
2022-10-20T05:26:50.459Z,101121.84
2022-10-20T05:31:53.365Z,101131.84
2022-10-20T05:36:56.265Z,101134.81
2022-10-20T05:41:58.966Z,101132.63
2022-10-20T05:47:01.846Z,101145.03
2022-10-20T05:52:04.557Z,101155.50
2022-10-20T05:57:07.412Z,101158.03
2022-10-20T06:02:11.759Z,101163.09
2022-10-20T06:07:14.623Z,101174.34
2022-10-20T06:12:17.406Z,101183.84
2022-10-20T06:17:20.923Z,101178.69
2022-10-20T06:22:23.747Z,101196.97
2022-10-20T06:27:26.532Z,101193.91
2022-10-20T06:32:29.320Z,101209.59
2022-10-20T06:37:33.135Z,101212.81
2022-10-20T06:42:36.066Z,101221.72
2022-10-20T06:47:39.358Z,101217.56
2022-10-20T06:52:42.491Z,101218.50
2022-10-20T06:57:45.270Z,101215.63
2022-10-20T07:02:48.219Z,101218.91
2022-10-20T07:07:54.197Z,101223.66
2022-10-20T07:12:57.044Z,101223.31
2022-10-20T07:17:59.703Z,101221.91
2022-10-20T07:23:02.488Z,101223.53
2022-10-20T07:28:05.319Z,101213.66
2022-10-20T07:33:09.524Z,101206.66
2022-10-20T07:38:12.098Z,101214.53
2022-10-20T07:43:14.911Z,101215.88
2022-10-20T07:48:18.111Z,101215.81
2022-10-20T07:53:21.002Z,101222.22
2022-10-20T07:58:23.719Z,101212.38
2022-10-20T08:03:26.489Z,101222.38
2022-10-20T08:08:29.126Z,101218.56
2022-10-20T08:13:32.232Z,101213.00
2022-10-20T08:18:38.310Z,101214.09
2022-10-20T08:23:43.501Z,101227.09
2022-10-20T08:28:47.364Z,101207.53
2022-10-20T08:33:52.839Z,101215.44
2022-10-20T08:39:02.101Z,101218.66
2022-10-20T08:44:08.358Z,101214.81
2022-10-20T08:49:25.909Z,101210.63
2022-10-20T08:54:28.685Z,101217.34
2022-10-20T08:59:39.832Z,101222.84
2022-10-20T09:04:57.821Z,101222.53
2022-10-20T09:10:34.717Z,101222.56
2022-10-20T09:15:37.838Z,101227.72
2022-10-20T09:20:44.462Z,101225.09
2022-10-20T09:25:47.780Z,101218.44
2022-10-20T09:30:51.069Z,101220.78
2022-10-20T09:35:54.475Z,101222.44
2022-10-20T09:41:14.723Z,101225.78
2022-10-20T09:46:21.870Z,101208.59
2022-10-20T09:51:28.014Z,101214.63
2022-10-20T09:56:33.280Z,101213.09
2022-10-20T10:01:52.759Z,101204.56
2022-10-20T10:06:55.524Z,101206.47
2022-10-20T10:12:13.512Z,101201.53
2022-10-20T10:17:38.496Z,101189.75
2022-10-20T10:22:43.045Z,101194.06
2022-10-20T10:28:00.715Z,101175.94
2022-10-20T10:33:25.484Z,101174.03
2022-10-20T10:38:29.040Z,101162.72
2022-10-20T10:43:56.295Z,101156.47
2022-10-20T10:49:36.784Z,101148.50
2022-10-20T10:54:56.598Z,101136.81
2022-10-20T11:00:01.714Z,101139.91
2022-10-20T11:05:27.299Z,101127.38
2022-10-20T11:10:59.987Z,101120.56
2022-10-20T11:16:53.478Z,101106.91
2022-10-20T11:22:17.416Z,101088.13
2022-10-20T11:27:25.988Z,101088.03
2022-10-20T11:37:43.894Z,101075.31
2022-10-20T11:43:14.906Z,101070.84
2022-10-20T11:48:40.594Z,101075.47
2022-10-20T11:54:01.265Z,101072.06
2022-10-20T11:59:34.967Z,101063.63
2022-10-20T12:05:08.856Z,101054.69
2022-10-20T12:10:43.311Z,101064.22
2022-10-20T12:15:55.215Z,101061.31
2022-10-20T12:21:05.616Z,101048.69
2022-10-20T12:26:30.644Z,101058.28
2022-10-20T12:32:20.907Z,101045.19
2022-10-20T12:37:23.875Z,101039.31
2022-10-20T12:42:29.488Z,101032.97
2022-10-20T12:47:35.022Z,101019.19
2022-10-20T12:52:40.401Z,101027.75
2022-10-20T12:57:45.075Z,101015.25
2022-10-20T13:02:58.635Z,101009.25
2022-10-20T13:08:16.165Z,101012.78
2022-10-20T13:13:18.906Z,101008.97
2022-10-20T13:18:22.872Z,101002.09
2022-10-20T13:23:50.181Z,101003.94
2022-10-20T13:28:55.395Z,101004.31
2022-10-20T13:34:16.512Z,100998.81
2022-10-20T13:39:35.836Z,101006.97
2022-10-20T13:44:49.508Z,101004.47
2022-10-20T13:50:13.482Z,101007.34
2022-10-20T13:55:25.139Z,101000.66
2022-10-20T14:00:31.059Z,100991.16
2022-10-20T14:05:38.930Z,100991.47
2022-10-20T14:11:04.718Z,100984.97
2022-10-20T14:16:18.483Z,100984.50
2022-10-20T14:21:21.356Z,100974.63
2022-10-20T14:26:25.012Z,100985.50
2022-10-20T14:31:28.303Z,100984.00
2022-10-20T14:36:31.329Z,100978.66
2022-10-20T14:41:35.584Z,100981.00
2022-10-20T14:46:40.907Z,100985.03
2022-10-20T14:51:54.005Z,100974.69
2022-10-20T14:57:02.393Z,100973.34
2022-10-20T15:02:09.956Z,100970.69
2022-10-20T15:07:33.521Z,100963.31
2022-10-20T15:12:36.755Z,100961.94
2022-10-20T15:17:42.896Z,100958.03
2022-10-20T15:22:45.824Z,100959.81
2022-10-20T15:27:48.569Z,100957.06
2022-10-20T15:32:52.300Z,100953.25
2022-10-20T15:37:56.414Z,100950.88
2022-10-20T15:42:59.171Z,100946.53
2022-10-20T15:48:02.025Z,100951.09
2022-10-20T15:53:05.474Z,100950.34
2022-10-20T15:58:08.386Z,100949.84
2022-10-20T16:03:17.573Z,100955.69
2022-10-20T16:08:20.317Z,100956.75
2022-10-20T16:13:23.227Z,100973.13
2022-10-20T16:18:26.215Z,100973.44
2022-10-20T16:23:29.016Z,100963.97
2022-10-20T16:28:31.991Z,100968.44
2022-10-20T16:33:35.399Z,100982.00
2022-10-20T16:38:40.198Z,100977.16
2022-10-20T16:43:45.471Z,100974.63
2022-10-20T16:48:48.521Z,100984.41
2022-10-20T16:53:51.307Z,100986.22
2022-10-20T16:58:54.054Z,100980.75
2022-10-20T17:03:56.919Z,100983.53
2022-10-20T17:09:00.087Z,100976.25
2022-10-20T17:14:05.064Z,100989.66
2022-10-20T17:19:08.126Z,100983.22
2022-10-20T17:24:14.558Z,100998.09
2022-10-20T17:29:20.071Z,100995.69
2022-10-20T17:34:24.830Z,101002.56
2022-10-20T17:39:28.596Z,101003.31
2022-10-20T17:44:31.406Z,101001.78
2022-10-20T17:49:34.178Z,101013.09
2022-10-20T17:54:37.053Z,101019.66
2022-10-20T17:59:52.146Z,101008.69
2022-10-20T18:04:57.547Z,101009.09
2022-10-20T18:10:00.362Z,100992.81
2022-10-20T18:15:04.150Z,101005.34
2022-10-20T18:20:07.248Z,101001.41
2022-10-20T18:25:10.053Z,101000.00
2022-10-20T18:30:12.763Z,101006.75
2022-10-20T18:35:15.732Z,100996.91
2022-10-20T18:40:18.627Z,101002.44
2022-10-20T18:45:23.844Z,101001.81
2022-10-20T18:50:28.751Z,100997.16
2022-10-20T18:55:31.561Z,100992.09
2022-10-20T19:00:34.351Z,100995.09
2022-10-20T19:05:38.925Z,101009.59
2022-10-20T19:10:44.066Z,101012.84
2022-10-20T19:15:47.920Z,101007.19
2022-10-20T19:21:02.056Z,101011.59
2022-10-20T19:26:18.456Z,101009.75
2022-10-20T19:31:43.702Z,101011.19
2022-10-20T19:36:47.314Z,101016.91
2022-10-20T19:41:50.285Z,101015.69
2022-10-20T19:46:53.399Z,101015.91
2022-10-20T19:51:56.420Z,101018.81
2022-10-20T19:56:59.451Z,101016.75
2022-10-20T20:02:02.636Z,101012.97
2022-10-20T20:07:05.590Z,101009.97
2022-10-20T20:12:08.924Z,101021.19
2022-10-20T20:17:11.886Z,101022.69
2022-10-20T20:22:14.638Z,101011.75
2022-10-20T20:27:17.444Z,101017.59
2022-10-20T20:32:20.480Z,101027.81
2022-10-20T20:37:23.543Z,101015.94
2022-10-20T20:42:26.422Z,101022.41
2022-10-20T20:47:33.120Z,101034.22
2022-10-20T20:52:35.910Z,101018.09
2022-10-20T20:57:39.010Z,101025.38
2022-10-20T21:02:44.515Z,101016.13
2022-10-20T21:07:47.285Z,101023.50
2022-10-20T21:12:49.993Z,101019.50
2022-10-20T21:17:52.952Z,101018.03
2022-10-20T21:22:55.885Z,101023.53
2022-10-20T21:27:58.603Z,101019.09
2022-10-20T21:33:01.347Z,101014.78
2022-10-20T21:38:04.218Z,101020.38
2022-10-20T21:43:10.439Z,101010.09
2022-10-20T21:48:13.414Z,101011.22
2022-10-20T21:53:17.312Z,101013.97
2022-10-20T21:58:20.084Z,101002.94
2022-10-20T22:03:23.285Z,101011.03
2022-10-20T22:08:26.266Z,101012.81
2022-10-20T22:13:28.992Z,101008.50
2022-10-20T22:18:31.794Z,101009.03
2022-10-20T22:23:34.632Z,101010.31
2022-10-20T22:28:38.245Z,101019.97
2022-10-20T22:33:41.141Z,101026.50
2022-10-20T22:38:44.028Z,101025.84
2022-10-20T22:43:46.778Z,101023.53
2022-10-20T22:48:50.004Z,101028.06
2022-10-20T22:53:52.771Z,101023.94
2022-10-20T22:58:55.601Z,101032.88
2022-10-20T23:03:58.452Z,101026.91
2022-10-20T23:09:01.327Z,101017.41
2022-10-20T23:14:04.128Z,101013.22
2022-10-20T23:19:07.079Z,101001.22
2022-10-20T23:24:09.870Z,100996.19
2022-10-20T23:29:12.696Z,101010.66
2022-10-20T23:34:15.423Z,100994.16
2022-10-20T23:39:18.439Z,101004.91
2022-10-20T23:44:21.177Z,101010.44
2022-10-20T23:49:23.981Z,101010.56
2022-10-20T23:54:26.810Z,101011.59
2022-10-20T23:59:29.593Z,101005.59
